Time;durP1;ratioP1;P1;durP2;ratioP2;P2;SDS_P1;SDS_P2;PMS_P1;PMS_P2;Temp;Humidity;BMP_temperature;BMP_pressure;BME280_temperature;BME280_humidity;BME280_pressure;Samples;Min_cycle;Max_cycle;Signal;HPM_P1;HPM_P2
2022/05/14 00:01:29;;;;;;;3.83;0.90;;;16.90;99.90;;;;;;6163748;23;20205;-92
2022/05/14 00:04:09;;;;;;;3.73;0.90;;;16.70;99.90;;;;;;6174019;23;20652;-92
2022/05/14 00:06:41;;;;;;;2.13;0.70;;;16.70;99.90;;;;;;6143509;23;20174;-92
2022/05/14 00:09:13;;;;;;;1.30;0.73;;;16.90;99.90;;;;;;6168818;23;20189;-92
2022/05/14 00:14:33;;;;;;;4.03;0.90;;;16.90;99.90;;;;;;6176308;23;20170;-91
2022/05/14 00:17:10;;;;;;;1.93;1.00;;;16.70;99.90;;;;;;6165736;23;20182;-92
2022/05/14 00:19:42;;;;;;;1.43;0.70;;;16.40;99.90;;;;;;6165176;23;20251;-91
2022/05/14 00:22:13;;;;;;;1.50;0.63;;;16.40;99.90;;;;;;6137353;23;20309;-91
2022/05/14 00:24:46;;;;;;;1.03;0.80;;;16.10;99.90;;;;;;6168678;23;20174;-91
2022/05/14 00:27:17;;;;;;;1.73;0.87;;;16.30;99.90;;;;;;6180360;23;20154;-91
2022/05/14 00:29:49;;;;;;;2.37;1.03;;;16.20;99.90;;;;;;6180385;23;20188;-92
2022/05/14 00:32:27;;;;;;;1.63;0.73;;;16.30;99.90;;;;;;6182163;23;20198;-91
2022/05/14 00:34:59;;;;;;;3.37;1.00;;;16.20;99.90;;;;;;6147068;23;20169;-92
2022/05/14 00:37:33;;;;;;;1.37;0.80;;;16.30;99.90;;;;;;6166254;23;20223;-92
2022/05/14 00:40:06;;;;;;;4.97;0.90;;;16.30;99.90;;;;;;6165615;23;20162;-92
2022/05/14 00:42:37;;;;;;;1.60;0.70;;;16.10;99.90;;;;;;6169370;23;20272;-92
2022/05/14 00:45:16;;;;;;;1.53;0.80;;;15.80;99.90;;;;;;6163608;23;20257;-90
2022/05/14 00:47:55;;;;;;;3.17;1.00;;;15.60;99.90;;;;;;6160175;23;20189;-91
2022/05/14 00:50:32;;;;;;;1.93;1.07;;;15.60;99.90;;;;;;6162004;23;20177;-91
2022/05/14 00:53:09;;;;;;;2.67;0.80;;;15.70;99.90;;;;;;6162195;23;20189;-91
2022/05/14 00:55:41;;;;;;;1.83;0.70;;;15.60;99.90;;;;;;6163829;23;20184;-92
2022/05/14 00:58:20;;;;;;;3.30;0.80;;;15.70;99.90;;;;;;6175131;23;20178;-92
2022/05/14 01:00:54;;;;;;;1.87;0.73;;;15.50;99.90;;;;;;6153273;23;20228;-91
2022/05/14 01:03:35;;;;;;;1.23;0.70;;;15.30;99.90;;;;;;6173286;23;20211;-92
2022/05/14 01:06:14;;;;;;;2.10;0.80;;;15.30;99.90;;;;;;6177038;23;20197;-91
2022/05/14 01:08:51;;;;;;;3.47;0.80;;;15.20;99.90;;;;;;6174484;23;20189;-91
2022/05/14 01:11:25;;;;;;;2.30;0.80;;;15.20;99.90;;;;;;6182852;23;20165;-91
2022/05/14 01:13:57;;;;;;;0.87;0.63;;;15.20;99.90;;;;;;6181708;23;20157;-92
2022/05/14 01:16:29;;;;;;;2.10;0.70;;;15.20;99.90;;;;;;6175190;23;20166;-91
2022/05/14 01:19:05;;;;;;;1.50;0.83;;;15.10;99.90;;;;;;6179776;23;20165;-92
2022/05/14 01:21:48;;;;;;;1.30;0.60;;;14.90;99.90;;;;;;6177789;23;20174;-91
2022/05/14 01:27:33;;;;;;;4.00;1.00;;;14.60;99.90;;;;;;6174340;23;20178;-90
2022/05/14 01:30:09;;;;;;;1.97;0.70;;;14.60;99.90;;;;;;6177714;23;20280;-91
2022/05/14 01:32:41;;;;;;;1.33;0.80;;;14.60;99.90;;;;;;6147897;23;20157;-92
2022/05/14 01:35:15;;;;;;;1.40;0.87;;;14.50;99.90;;;;;;6172951;23;20200;-91
2022/05/14 01:37:49;;;;;;;1.97;0.63;;;14.50;99.90;;;;;;6161600;23;20674;-92
2022/05/14 01:40:21;;;;;;;2.57;0.90;;;14.30;99.90;;;;;;6142802;23;20201;-92
2022/05/14 01:42:59;;;;;;;2.77;0.80;;;14.20;99.90;;;;;;6136583;23;20292;-92
2022/05/14 01:45:31;;;;;;;2.30;0.60;;;14.10;99.90;;;;;;6163316;23;20511;-92
2022/05/14 01:48:03;;;;;;;1.13;0.63;;;14.00;99.90;;;;;;6160900;23;20182;-92
2022/05/14 01:50:34;;;;;;;3.00;0.73;;;13.90;99.90;;;;;;6161408;23;20212;-92
2022/05/14 01:53:06;;;;;;;1.47;0.80;;;13.90;99.90;;;;;;6168069;23;20184;-92
2022/05/14 01:55:38;;;;;;;0.90;0.60;;;13.90;99.90;;;;;;6167768;23;20180;-92
2022/05/14 02:01:01;;;;;;;2.20;0.80;;;13.50;99.90;;;;;;6162377;23;20858;-92
2022/05/14 02:03:33;;;;;;;2.67;0.80;;;13.40;99.90;;;;;;6138272;23;20285;-92
2022/05/14 02:06:07;;;;;;;0.97;0.60;;;13.30;99.90;;;;;;6177619;23;20170;-92
2022/05/14 02:08:40;;;;;;;1.90;0.90;;;13.30;99.90;;;;;;6183582;23;20329;-92
2022/05/14 02:11:16;;;;;;;1.17;0.90;;;13.20;99.90;;;;;;6202722;23;20208;-92
2022/05/14 02:14:01;;;;;;;1.50;0.97;;;13.10;99.90;;;;;;6202589;23;20684;-92
2022/05/14 02:16:34;;;;;;;2.17;1.00;;;13.10;99.90;;;;;;6207077;23;20176;-93
2022/05/14 02:19:11;;;;;;;2.23;1.00;;;13.10;99.90;;;;;;6189959;23;20262;-93
2022/05/14 02:21:44;;;;;;;2.93;0.77;;;12.90;99.90;;;;;;6206361;23;20192;-92
2022/05/14 02:24:18;;;;;;;4.37;1.00;;;13.00;99.90;;;;;;6198407;23;20196;-90
2022/05/14 02:26:50;;;;;;;1.43;0.90;;;12.60;99.90;;;;;;6174276;23;20192;-90
2022/05/14 02:29:26;;;;;;;1.27;0.90;;;12.70;99.90;;;;;;6202865;23;20165;-90
2022/05/14 02:32:00;;;;;;;1.80;0.87;;;12.60;99.90;;;;;;6200738;23;20183;-91
2022/05/14 02:34:35;;;;;;;1.67;1.10;;;12.50;99.90;;;;;;6196187;23;20173;-92
2022/05/14 02:37:09;;;;;;;1.43;0.80;;;12.50;99.90;;;;;;6205022;23;20184;-92
2022/05/14 02:39:41;;;;;;;3.10;0.90;;;12.40;99.90;;;;;;6198033;23;20276;-92
2022/05/14 02:42:20;;;;;;;1.10;0.80;;;12.30;99.90;;;;;;6194963;23;20174;-92
2022/05/14 02:44:56;;;;;;;2.23;0.93;;;12.20;99.90;;;;;;6207611;23;20177;-91
2022/05/14 02:47:30;;;;;;;1.07;0.80;;;12.20;99.90;;;;;;6187432;23;20204;-92
2022/05/14 02:52:52;;;;;;;2.30;1.17;;;12.20;99.90;;;;;;6209314;23;20168;-92
2022/05/14 02:55:25;;;;;;;1.17;0.93;;;12.20;99.90;;;;;;6205577;23;20153;-92
2022/05/14 02:57:58;;;;;;;1.63;0.97;;;12.40;99.90;;;;;;6208784;23;20192;-92
2022/05/14 03:06:22;;;;;;;1.83;1.00;;;12.30;99.90;;;;;;6176356;23;20229;-92
2022/05/14 03:08:55;;;;;;;2.10;0.90;;;12.20;99.90;;;;;;6151605;23;20204;-89
2022/05/14 03:11:28;;;;;;;3.00;1.03;;;12.10;99.90;;;;;;6151982;23;20180;-91
2022/05/14 03:14:01;;;;;;;2.47;1.03;;;12.00;99.90;;;;;;6174536;23;20188;-92
2022/05/14 03:16:40;;;;;;;2.00;1.10;;;11.90;99.90;;;;;;6179792;23;20158;-92
2022/05/14 03:19:12;;;;;;;1.47;1.10;;;11.90;99.90;;;;;;6173726;23;20188;-92
2022/05/14 03:21:45;;;;;;;2.53;1.03;;;11.90;99.90;;;;;;6171277;23;20197;-91
2022/05/14 03:24:17;;;;;;;2.27;0.87;;;11.90;99.90;;;;;;6182015;23;20303;-91
2022/05/14 03:26:50;;;;;;;2.33;1.00;;;11.80;99.90;;;;;;6183797;23;20196;-91
2022/05/14 03:29:27;;;;;;;1.83;1.37;;;11.80;99.90;;;;;;6179335;23;20189;-91
2022/05/14 03:32:02;;;;;;;2.20;1.40;;;11.70;99.90;;;;;;6174119;23;20178;-91
2022/05/14 03:34:37;;;;;;;2.13;1.37;;;11.70;99.90;;;;;;6149329;23;20241;-91
2022/05/14 03:37:09;;;;;;;1.93;1.10;;;11.70;99.90;;;;;;6147705;23;20189;-91
2022/05/14 03:39:41;;;;;;;3.50;1.27;;;11.60;99.90;;;;;;6171680;23;20188;-91
2022/05/14 03:42:13;;;;;;;1.43;1.10;;;11.60;99.90;;;;;;6171801;23;20170;-91
2022/05/14 03:44:48;;;;;;;1.73;1.40;;;11.60;99.90;;;;;;6182798;23;20190;-90
2022/05/14 03:47:28;;;;;;;1.93;1.20;;;11.60;99.90;;;;;;6157309;23;20177;-92
2022/05/14 03:50:00;;;;;;;2.20;1.30;;;11.50;99.90;;;;;;6183061;23;20209;-92
2022/05/14 03:52:35;;;;;;;2.07;1.17;;;11.50;99.90;;;;;;6182803;23;20162;-91
2022/05/14 03:55:08;;;;;;;4.10;1.20;;;11.50;99.90;;;;;;6182844;23;20174;-91
2022/05/14 03:57:40;;;;;;;1.80;1.13;;;11.50;99.90;;;;;;6182122;23;20158;-93
2022/05/14 04:00:16;;;;;;;3.17;1.10;;;11.40;99.90;;;;;;6182244;23;20244;-91
2022/05/14 04:02:53;;;;;;;3.03;1.10;;;11.40;99.90;;;;;;6139264;23;20271;-91
2022/05/14 04:05:25;;;;;;;1.10;0.90;;;11.30;99.90;;;;;;6212446;23;20235;-91
2022/05/14 04:07:58;;;;;;;1.43;1.00;;;11.30;99.90;;;;;;6187477;23;20172;-91
2022/05/14 04:10:31;;;;;;;1.97;0.80;;;11.30;99.90;;;;;;6202533;23;20220;-91
2022/05/14 04:13:05;;;;;;;2.17;1.17;;;11.30;99.90;;;;;;6210828;23;20184;-90
2022/05/14 04:15:38;;;;;;;1.93;1.00;;;11.30;99.90;;;;;;6186332;23;20228;-90
2022/05/14 04:18:15;;;;;;;1.43;1.20;;;11.30;99.90;;;;;;6186276;23;20225;-92
2022/05/14 04:37:00;;;;;;;1.30;1.13;;;11.20;99.90;;;;;;6208310;23;20220;-89
2022/05/14 04:42:12;;;;;;;1.43;0.97;;;11.10;99.90;;;;;;6151014;23;20241;-90
2022/05/14 04:44:47;;;;;;;2.37;1.27;;;11.00;99.90;;;;;;6149066;23;20201;-90
2022/05/14 04:47:20;;;;;;;4.57;1.83;;;11.00;99.90;;;;;;6147905;23;20241;-90
2022/05/14 04:49:52;;;;;;;1.70;1.10;;;10.90;99.90;;;;;;6143713;23;20472;-91
2022/05/14 04:52:35;;;;;;;3.03;1.20;;;10.90;99.90;;;;;;6143747;23;20178;-91
2022/05/14 04:55:09;;;;;;;2.07;1.53;;;10.90;99.90;;;;;;6142591;23;20278;-90
2022/05/14 04:57:43;;;;;;;1.30;1.20;;;10.80;99.90;;;;;;6143130;23;20177;-91
2022/05/14 05:00:18;;;;;;;1.97;1.20;;;10.80;99.90;;;;;;6133648;23;20181;-91
2022/05/14 05:05:36;;;;;;;1.97;1.43;;;10.80;99.90;;;;;;6133458;23;20210;-91
2022/05/14 05:08:14;;;;;;;4.53;1.50;;;10.70;99.90;;;;;;6134877;23;20237;-91
2022/05/14 05:10:46;;;;;;;2.60;1.27;;;10.70;99.90;;;;;;6110974;23;20186;-91
2022/05/14 05:13:21;;;;;;;1.97;1.47;;;10.70;99.90;;;;;;6138755;23;20175;-91
2022/05/14 05:15:53;;;;;;;2.90;1.20;;;10.60;99.90;;;;;;6138401;23;20200;-91
2022/05/14 05:18:25;;;;;;;3.37;1.47;;;10.60;99.90;;;;;;6134258;23;20200;-91
2022/05/14 05:20:58;;;;;;;2.07;1.30;;;10.60;99.90;;;;;;6111409;23;20241;-91
2022/05/14 05:23:31;;;;;;;1.30;1.03;;;10.60;99.90;;;;;;6134389;23;20202;-91
2022/05/14 05:26:03;;;;;;;2.50;1.30;;;10.60;99.90;;;;;;6109233;23;20206;-92
2022/05/14 05:28:34;;;;;;;2.90;1.50;;;10.70;99.90;;;;;;6134505;23;20183;-91
2022/05/14 05:31:07;;;;;;;3.80;1.33;;;10.60;99.90;;;;;;6135644;23;20182;-91
2022/05/14 05:33:39;;;;;;;1.80;1.50;;;10.60;99.90;;;;;;6141253;23;20182;-91
2022/05/14 05:36:12;;;;;;;1.73;1.30;;;10.50;99.90;;;;;;6150435;23;20170;-91
2022/05/14 05:39:02;;;;;;;2.60;1.27;;;10.50;99.90;;;;;;6177660;23;20212;-91
2022/05/14 05:41:36;;;;;;;1.63;1.23;;;10.50;99.90;;;;;;6172121;23;20616;-89
2022/05/14 05:44:08;;;;;;;2.10;1.57;;;10.40;99.90;;;;;;6196636;23;20176;-91
2022/05/14 05:46:48;;;;;;;1.30;1.20;;;10.40;99.90;;;;;;6209511;23;20177;-91
2022/05/14 05:49:19;;;;;;;4.30;1.77;;;10.30;99.90;;;;;;6209893;23;20169;-90
2022/05/14 05:51:51;;;;;;;2.17;1.33;;;10.20;99.90;;;;;;6211786;23;20176;-90
2022/05/14 05:57:13;;;;;;;3.23;1.27;;;10.10;99.90;;;;;;6203057;23;20252;-91
2022/05/14 05:59:47;;;;;;;2.87;1.40;;;10.10;99.90;;;;;;6192904;23;20196;-91
2022/05/14 06:02:18;;;;;;;3.73;1.63;;;10.00;99.90;;;;;;6166839;23;20589;-91
2022/05/14 06:04:49;;;;;;;2.37;1.40;;;10.00;99.90;;;;;;6191339;23;20209;-91
2022/05/14 06:07:20;;;;;;;1.60;1.40;;;10.00;99.90;;;;;;6190514;23;20235;-91
2022/05/14 06:09:53;;;;;;;3.57;1.33;;;10.00;99.90;;;;;;6190561;23;20666;-91
2022/05/14 06:12:25;;;;;;;1.97;1.47;;;10.00;99.90;;;;;;6192280;23;20176;-91
2022/05/14 06:14:56;;;;;;;1.73;1.50;;;10.10;99.90;;;;;;6190493;23;20177;-91
2022/05/14 06:17:27;;;;;;;2.07;1.40;;;10.10;99.90;;;;;;6190026;23;20177;-95
2022/05/14 06:19:58;;;;;;;2.80;1.80;;;10.10;99.90;;;;;;6192501;23;20177;-92
2022/05/14 06:22:30;;;;;;;2.03;1.60;;;10.10;99.90;;;;;;6192411;23;20228;-91
2022/05/14 06:25:03;;;;;;;1.63;1.53;;;10.00;99.90;;;;;;6192610;23;20701;-92
2022/05/14 06:27:34;;;;;;;2.93;1.50;;;10.10;99.90;;;;;;6190339;23;20180;-91
2022/05/14 06:30:06;;;;;;;2.83;1.60;;;10.10;99.90;;;;;;6192598;23;20177;-91
2022/05/14 06:32:38;;;;;;;2.53;1.73;;;10.10;99.90;;;;;;6192238;23;20177;-91
2022/05/14 06:35:11;;;;;;;1.57;1.40;;;10.10;99.90;;;;;;6192067;23;20243;-91
2022/05/14 06:37:43;;;;;;;3.30;1.60;;;10.10;99.90;;;;;;6191920;23;20212;-91
2022/05/14 06:40:18;;;;;;;2.80;1.83;;;10.10;99.90;;;;;;6196009;23;20185;-90
2022/05/14 06:42:49;;;;;;;2.60;1.70;;;10.10;99.90;;;;;;6167639;23;20215;-91
2022/05/14 06:45:21;;;;;;;1.77;1.37;;;10.20;99.90;;;;;;6193410;23;20201;-92
2022/05/14 06:47:53;;;;;;;1.83;1.33;;;10.20;99.90;;;;;;6192814;23;20173;-92
2022/05/14 06:50:26;;;;;;;2.00;1.60;;;10.10;99.90;;;;;;6192802;23;20174;-92
2022/05/14 06:53:01;;;;;;;6.00;1.67;;;10.00;99.90;;;;;;6191398;23;20236;-91
2022/05/14 06:55:38;;;;;;;2.13;1.90;;;10.00;99.90;;;;;;6191907;23;20542;-92
2022/05/14 06:58:12;;;;;;;3.60;1.87;;;10.00;99.90;;;;;;6190518;23;20180;-92
2022/05/14 07:00:44;;;;;;;3.23;1.80;;;10.00;99.90;;;;;;6194435;23;20204;-92
2022/05/14 07:08:51;;;;;;;2.73;1.73;;;10.10;99.90;;;;;;6190537;23;20169;-92
2022/05/14 07:11:25;;;;;;;2.40;1.43;;;10.00;99.90;;;;;;6192176;23;20239;-93
2022/05/14 07:13:56;;;;;;;3.53;1.80;;;10.00;99.90;;;;;;6192038;23;20229;-92
2022/05/14 07:16:28;;;;;;;3.50;1.80;;;10.00;99.90;;;;;;6191686;23;20181;-92
2022/05/14 07:19:01;;;;;;;3.00;1.60;;;10.00;99.90;;;;;;6190969;23;20174;-92
2022/05/14 07:21:33;;;;;;;5.03;1.97;;;10.00;99.90;;;;;;6191262;23;20181;-90
2022/05/14 07:24:07;;;;;;;2.53;1.80;;;9.90;99.90;;;;;;6193543;23;20636;-91
2022/05/14 07:26:42;;;;;;;2.63;1.80;;;10.00;99.90;;;;;;6190548;23;20200;-90
2022/05/14 07:29:15;;;;;;;3.50;1.80;;;9.90;99.90;;;;;;6198867;23;20187;-91
2022/05/14 07:31:49;;;;;;;5.03;1.87;;;9.90;99.90;;;;;;6168755;23;20554;-90
2022/05/14 07:34:21;;;;;;;1.83;1.67;;;9.70;99.90;;;;;;6190198;23;20651;-90
2022/05/14 07:37:00;;;;;;;2.97;2.03;;;9.60;99.90;;;;;;6189959;23;20181;-90
2022/05/14 07:39:35;;;;;;;2.23;2.00;;;9.50;99.90;;;;;;6189420;23;20211;-90
2022/05/14 07:42:15;;;;;;;3.10;2.27;;;9.50;99.90;;;;;;6190823;23;20176;-90
2022/05/14 07:44:50;;;;;;;3.50;2.17;;;9.50;99.90;;;;;;6190968;23;20188;-90
2022/05/14 07:47:23;;;;;;;2.27;1.60;;;9.60;99.90;;;;;;6166429;23;20169;-90
2022/05/14 07:49:54;;;;;;;3.60;1.90;;;9.60;99.90;;;;;;6191713;23;20181;-90
2022/05/14 07:52:25;;;;;;;4.60;2.10;;;9.40;99.90;;;;;;6193755;23;20230;-90
2022/05/14 07:54:56;;;;;;;3.63;1.93;;;9.40;99.90;;;;;;6197911;23;20180;-90
2022/05/14 07:57:29;;;;;;;2.47;2.03;;;9.40;99.90;;;;;;6203371;23;20199;-94
2022/05/14 08:00:01;;;;;;;2.53;2.00;;;9.30;99.90;;;;;;6206711;23;20165;-91
2022/05/14 08:02:34;;;;;;;4.33;2.27;;;9.30;99.90;;;;;;6207634;23;20177;-90
2022/05/14 08:05:08;;;;;;;2.73;1.80;;;9.30;99.90;;;;;;6205422;23;20200;-91
2022/05/14 08:07:40;;;;;;;4.03;2.23;;;9.30;99.90;;;;;;6165833;23;20223;-91
2022/05/14 08:10:13;;;;;;;4.67;2.00;;;9.30;99.90;;;;;;6192955;23;20751;-89
2022/05/14 08:12:50;;;;;;;4.43;2.30;;;9.30;99.90;;;;;;6193071;23;20165;-90
2022/05/14 08:15:26;;;;;;;3.20;2.13;;;9.30;99.90;;;;;;6192119;23;20255;-90
2022/05/14 08:17:58;;;;;;;2.80;2.00;;;9.30;99.90;;;;;;6190213;23;20569;-91
2022/05/14 08:20:30;;;;;;;4.10;2.33;;;9.30;99.90;;;;;;6191092;23;20177;-90
2022/05/14 08:25:50;;;;;;;4.00;2.10;;;9.30;99.90;;;;;;6192210;23;20208;-90
2022/05/14 08:28:26;;;;;;;2.43;2.00;;;9.30;99.90;;;;;;6165087;23;20169;-90
2022/05/14 08:30:57;;;;;;;4.43;2.57;;;9.20;99.90;;;;;;6193663;23;20237;-90
2022/05/14 08:33:30;;;;;;;2.73;2.10;;;9.20;99.90;;;;;;6190830;23;20204;-90
2022/05/14 08:36:01;;;;;;;2.93;2.10;;;9.20;99.90;;;;;;6190893;23;20616;-90
2022/05/14 08:38:36;;;;;;;3.47;2.07;;;9.20;99.90;;;;;;6189913;23;20189;-90
2022/05/14 08:41:08;;;;;;;2.37;2.17;;;9.20;99.90;;;;;;6165495;23;20611;-90
2022/05/14 08:43:45;;;;;;;2.83;2.00;;;9.30;99.90;;;;;;6190028;23;20243;-91
2022/05/14 08:46:20;;;;;;;3.27;2.27;;;9.20;99.90;;;;;;6190235;23;20199;-90
2022/05/14 08:48:53;;;;;;;2.47;2.10;;;9.20;99.90;;;;;;6189010;23;20176;-90
2022/05/14 08:51:30;;;;;;;3.93;2.30;;;9.10;99.90;;;;;;6191157;23;20165;-91
2022/05/14 08:54:03;;;;;;;2.87;2.40;;;9.00;99.90;;;;;;6197051;23;20176;-90
2022/05/14 08:56:43;;;;;;;2.90;2.00;;;9.00;99.90;;;;;;6190268;23;20174;-91
2022/05/14 08:59:55;;;;;;;4.63;2.70;;;9.10;99.90;;;;;;6189648;23;20227;-91
2022/05/14 09:02:33;;;;;;;4.27;2.23;;;9.00;99.90;;;;;;6190624;23;20245;-91
2022/05/14 09:05:10;;;;;;;4.57;2.20;;;9.00;99.90;;;;;;6191178;23;20177;-91
2022/05/14 09:07:42;;;;;;;4.20;2.27;;;9.00;99.90;;;;;;6191575;23;20259;-90
2022/05/14 09:10:25;;;;;;;3.87;2.30;;;8.90;99.90;;;;;;6190903;23;20161;-91
2022/05/14 09:12:59;;;;;;;3.23;2.03;;;9.00;99.90;;;;;;6190528;23;20177;-90
2022/05/14 09:15:37;;;;;;;7.33;2.40;;;9.00;99.90;;;;;;6168865;23;20539;-91
2022/05/14 09:18:13;;;;;;;3.00;1.70;;;9.10;99.90;;;;;;6189416;23;20204;-90
2022/05/14 09:20:48;;;;;;;2.27;1.90;;;9.10;99.90;;;;;;6190560;23;20169;-91
2022/05/14 09:23:31;;;;;;;2.20;2.00;;;9.10;99.90;;;;;;6190247;23;20176;-90
2022/05/14 09:26:11;;;;;;;1.83;1.67;;;9.10;99.90;;;;;;6190361;23;20219;-91
2022/05/14 09:28:47;;;;;;;3.33;2.17;;;9.10;99.90;;;;;;6189401;23;20173;-91
2022/05/14 09:31:27;;;;;;;1.67;1.57;;;9.10;99.90;;;;;;6189706;23;20166;-92
2022/05/14 09:34:15;;;;;;;2.30;1.87;;;9.00;99.90;;;;;;6189365;23;20180;-91
2022/05/14 09:36:49;;;;;;;2.67;1.80;;;9.10;99.90;;;;;;6190310;23;20200;-89
2022/05/14 09:39:24;;;;;;;3.57;1.70;;;9.10;99.90;;;;;;6189641;23;20200;-90
2022/05/14 09:41:59;;;;;;;2.07;1.87;;;9.10;99.90;;;;;;6164537;23;20234;-90
2022/05/14 09:44:35;;;;;;;3.43;1.80;;;9.10;99.90;;;;;;6188812;23;20703;-89
2022/05/14 09:47:11;;;;;;;3.40;2.17;;;9.10;99.90;;;;;;6193788;23;20208;-90
2022/05/14 09:49:56;;;;;;;2.20;2.00;;;9.10;99.90;;;;;;6190225;23;20627;-90
2022/05/14 09:52:29;;;;;;;2.97;1.93;;;9.20;99.90;;;;;;6192169;23;20177;-90
2022/05/14 09:55:03;;;;;;;2.97;1.80;;;9.20;99.90;;;;;;6192977;23;20165;-89
2022/05/14 09:57:45;;;;;;;2.23;2.00;;;9.20;99.90;;;;;;6193975;23;20208;-89
2022/05/14 10:00:21;;;;;;;2.30;2.10;;;9.20;99.90;;;;;;6196234;23;20176;-89
2022/05/14 10:03:20;;;;;;;3.00;2.27;;;9.20;99.90;;;;;;6197790;23;20512;-90
2022/05/14 10:06:02;;;;;;;3.30;1.90;;;9.10;99.90;;;;;;6209224;23;20196;-89
2022/05/14 10:08:53;;;;;;;3.43;1.93;;;9.20;99.90;;;;;;6209854;23;20208;-90
2022/05/14 10:11:31;;;;;;;2.00;1.70;;;9.10;99.90;;;;;;6199356;23;20263;-89
2022/05/14 10:14:15;;;;;;;2.30;2.10;;;9.10;99.90;;;;;;6196832;23;20177;-90
2022/05/14 10:16:59;;;;;;;3.50;1.90;;;9.10;99.90;;;;;;6194692;23;20299;-90
2022/05/14 10:19:51;;;;;;;2.40;2.20;;;9.00;99.90;;;;;;6165224;23;20296;-90
2022/05/14 10:26:45;;;;;;;3.50;1.70;;;9.00;99.90;;;;;;6190981;23;20177;-90
2022/05/14 10:28:27;;;;;;;4.20;1.93;;;9.20;99.90;;;;;;6190256;23;20241;-89
2022/05/14 10:31:09;;;;;;;3.87;2.27;;;9.10;99.90;;;;;;6198477;23;20181;-91
2022/05/14 10:33:41;;;;;;;2.40;2.10;;;9.10;99.90;;;;;;6191182;23;20166;-90
2022/05/14 10:36:21;;;;;;;3.50;2.13;;;9.10;99.90;;;;;;6191342;23;20166;-90
2022/05/14 10:39:03;;;;;;;2.03;1.80;;;9.20;99.90;;;;;;6190443;23;20189;-90
2022/05/14 10:41:40;;;;;;;2.77;2.03;;;9.10;99.90;;;;;;6195233;23;20219;-90
2022/05/14 10:44:15;;;;;;;2.53;2.00;;;9.10;99.90;;;;;;6197829;23;20535;-90
2022/05/14 10:46:48;;;;;;;4.43;2.40;;;9.10;99.90;;;;;;6192631;23;20208;-90
2022/05/14 10:49:31;;;;;;;3.93;2.03;;;9.10;99.90;;;;;;6190547;23;20189;-90
2022/05/14 10:52:03;;;;;;;6.13;2.20;;;9.10;99.90;;;;;;6191605;23;20196;-89
2022/05/14 10:54:36;;;;;;;3.63;2.10;;;9.10;99.90;;;;;;6192150;23;20170;-90
2022/05/14 10:57:42;;;;;;;2.57;1.83;;;9.10;99.90;;;;;;6190546;23;20228;-89
2022/05/14 11:00:39;;;;;;;3.53;2.27;;;9.00;99.90;;;;;;6192116;23;20176;-89
2022/05/14 11:03:17;;;;;;;2.97;2.00;;;9.10;99.90;;;;;;6190888;23;20177;-89
2022/05/14 11:06:08;;;;;;;3.40;2.30;;;9.00;99.90;;;;;;6191429;23;20618;-90
2022/05/14 11:08:42;;;;;;;5.13;2.10;;;9.00;99.90;;;;;;6165666;23;20201;-89
2022/05/14 11:11:22;;;;;;;4.93;2.20;;;8.90;99.90;;;;;;6173752;23;20188;-90
2022/05/14 11:14:00;;;;;;;3.40;2.03;;;8.90;99.90;;;;;;6207210;23;20165;-89
2022/05/14 11:16:42;;;;;;;2.57;1.87;;;8.90;99.90;;;;;;6209129;23;20173;-90
2022/05/14 11:19:27;;;;;;;5.07;2.30;;;8.90;99.90;;;;;;6196231;23;20165;-89
2022/05/14 11:22:00;;;;;;;3.03;1.90;;;8.80;99.90;;;;;;6191384;23;20184;-89
2022/05/14 11:24:38;;;;;;;4.50;1.90;;;8.80;99.90;;;;;;6196772;23;20175;-89
2022/05/14 11:27:14;;;;;;;2.27;2.07;;;8.80;99.90;;;;;;6199152;23;20207;-90
2022/05/14 11:29:54;;;;;;;5.00;2.03;;;8.80;99.90;;;;;;6192616;23;20184;-89
2022/05/14 11:32:26;;;;;;;5.80;2.30;;;8.80;99.90;;;;;;6191870;23;20173;-89
2022/05/14 11:34:59;;;;;;;2.20;1.80;;;8.80;99.90;;;;;;6192756;23;20496;-89
2022/05/14 11:37:38;;;;;;;4.47;2.13;;;8.80;99.90;;;;;;6189222;23;20248;-89
2022/05/14 11:40:19;;;;;;;2.10;1.90;;;8.90;99.90;;;;;;6190787;23;20189;-89
2022/05/14 11:42:54;;;;;;;3.70;2.40;;;8.80;99.90;;;;;;6190369;23;20218;-89
2022/05/14 11:45:32;;;;;;;2.03;1.83;;;8.90;99.90;;;;;;6166127;23;20169;-89
2022/05/14 11:48:10;;;;;;;2.27;1.77;;;8.90;99.90;;;;;;6189635;23;20512;-89
2022/05/14 11:50:49;;;;;;;2.10;1.90;;;8.90;99.90;;;;;;6190824;23;20169;-90
2022/05/14 11:53:28;;;;;;;2.57;2.10;;;8.90;99.90;;;;;;6190337;23;20658;-88
2022/05/14 11:56:03;;;;;;;3.07;1.90;;;8.90;99.90;;;;;;6165769;23;20570;-89
2022/05/14 11:58:41;;;;;;;2.27;2.07;;;8.90;99.90;;;;;;6189981;23;20181;-88
2022/05/14 12:01:18;;;;;;;2.40;2.20;;;8.80;99.90;;;;;;6189941;23;20173;-89
2022/05/14 12:03:53;;;;;;;4.13;2.20;;;8.80;99.90;;;;;;6190008;23;20179;-89
2022/05/14 12:06:41;;;;;;;2.17;1.87;;;8.80;99.90;;;;;;6141599;23;20176;-90
2022/05/14 12:09:31;;;;;;;2.50;1.80;;;8.80;99.90;;;;;;6190176;23;20266;-89
2022/05/14 12:12:10;;;;;;;4.67;1.93;;;8.80;99.90;;;;;;6191253;23;20273;-89
2022/05/14 12:14:44;;;;;;;2.60;1.90;;;8.80;99.90;;;;;;6199697;23;20195;-89
2022/05/14 12:17:18;;;;;;;2.67;1.80;;;8.90;99.90;;;;;;6208507;23;20169;-89
2022/05/14 12:19:57;;;;;;;2.67;1.70;;;8.90;99.90;;;;;;6206249;23;20170;-89
2022/05/14 12:22:31;;;;;;;2.57;1.90;;;8.90;99.90;;;;;;6195613;23;20176;-89
2022/05/14 12:25:04;;;;;;;4.00;2.10;;;8.90;99.90;;;;;;6196508;23;20177;-89
2022/05/14 12:27:37;;;;;;;2.60;1.50;;;8.90;99.90;;;;;;6192244;23;20200;-90
2022/05/14 12:33:15;;;;;;;3.03;1.90;;;9.00;99.90;;;;;;6194554;23;20201;-90
2022/05/14 12:35:55;;;;;;;2.43;1.80;;;9.00;99.90;;;;;;6193268;23;20177;-89
2022/05/14 12:38:30;;;;;;;2.27;1.87;;;9.10;99.90;;;;;;6189309;23;20192;-89
2022/05/14 12:41:01;;;;;;;2.07;1.57;;;9.00;99.90;;;;;;6190604;23;20235;-90
2022/05/14 12:43:33;;;;;;;2.03;1.37;;;9.00;99.90;;;;;;6192661;23;20165;-89
2022/05/14 12:46:12;;;;;;;1.67;1.50;;;8.90;99.90;;;;;;6192339;23;20547;-90
2022/05/14 12:48:46;;;;;;;2.73;1.40;;;8.90;99.90;;;;;;6189101;23;20228;-90
2022/05/14 12:51:21;;;;;;;1.77;1.37;;;8.90;99.90;;;;;;6192634;23;20181;-91
2022/05/14 12:53:54;;;;;;;2.33;1.40;;;9.10;99.90;;;;;;6193011;23;20168;-90
2022/05/14 12:56:32;;;;;;;2.40;1.40;;;9.10;99.90;;;;;;6193114;23;20235;-90
2022/05/14 12:59:04;;;;;;;1.53;1.33;;;9.10;99.90;;;;;;6206816;23;20208;-89
2022/05/14 13:01:38;;;;;;;2.23;1.33;;;9.20;99.90;;;;;;6204753;23;20207;-90
2022/05/14 13:04:10;;;;;;;2.57;1.33;;;9.10;99.90;;;;;;6209772;23;20177;-89
2022/05/14 13:06:46;;;;;;;2.30;1.20;;;9.10;99.90;;;;;;6208004;23;20177;-90
2022/05/14 13:09:24;;;;;;;1.10;0.90;;;9.20;99.90;;;;;;6199169;23;20208;-90
2022/05/14 13:11:57;;;;;;;2.47;1.17;;;9.10;99.90;;;;;;6198496;23;20204;-90
2022/05/14 13:14:31;;;;;;;3.40;1.10;;;9.00;99.90;;;;;;6195460;23;20177;-90
2022/05/14 13:17:07;;;;;;;2.43;1.23;;;9.10;99.90;;;;;;6200675;23;20177;-90
2022/05/14 13:19:42;;;;;;;1.00;0.90;;;9.10;99.90;;;;;;6197746;23;20181;-89
2022/05/14 13:22:31;;;;;;;0.80;0.80;;;9.20;99.90;;;;;;6196263;23;20243;-90
2022/05/14 13:25:04;;;;;;;1.00;0.90;;;9.20;99.90;;;;;;6194681;23;20170;-90
2022/05/14 13:27:37;;;;;;;1.87;0.93;;;9.30;99.90;;;;;;6195237;23;20181;-90
2022/05/14 13:30:15;;;;;;;0.80;0.70;;;9.20;99.90;;;;;;6208449;23;20173;-90
2022/05/14 13:32:50;;;;;;;1.13;0.90;;;9.30;99.90;;;;;;6209434;23;20196;-90
2022/05/14 13:38:16;;;;;;;1.60;1.00;;;9.40;99.90;;;;;;6206819;23;20192;-90
2022/05/14 13:40:52;;;;;;;1.23;0.73;;;9.50;99.90;;;;;;6198332;23;20185;-89
2022/05/14 13:43:31;;;;;;;0.93;0.90;;;9.50;99.90;;;;;;6192992;23;20172;-90
2022/05/14 13:46:05;;;;;;;0.87;0.70;;;9.50;99.90;;;;;;6190444;23;20177;-90
2022/05/14 13:48:42;;;;;;;3.80;1.13;;;9.60;99.90;;;;;;6189725;23;20196;-90
2022/05/14 13:51:30;;;;;;;0.90;0.90;;;9.50;99.90;;;;;;6190789;23;20723;-90
2022/05/14 13:54:16;;;;;;;0.90;0.87;;;9.50;99.90;;;;;;6190263;23;20454;-89
2022/05/14 13:56:48;;;;;;;1.17;1.07;;;9.50;99.90;;;;;;6190126;23;20628;-89
2022/05/14 13:59:27;;;;;;;0.97;0.87;;;9.50;99.90;;;;;;6189400;23;20181;-89
2022/05/14 14:02:22;;;;;;;2.50;1.00;;;9.50;99.90;;;;;;6189357;23;20177;-89
2022/05/14 14:04:58;;;;;;;2.57;1.13;;;9.60;99.90;;;;;;6190369;23;20240;-89
2022/05/14 14:07:31;;;;;;;0.70;0.70;;;9.60;99.90;;;;;;6188859;23;20165;-90
2022/05/14 14:10:14;;;;;;;0.83;0.83;;;9.70;99.90;;;;;;6190077;23;20263;-89
2022/05/14 14:12:47;;;;;;;0.93;0.80;;;9.70;99.90;;;;;;6189423;23;20255;-88
2022/05/14 14:15:19;;;;;;;1.00;0.90;;;9.70;99.90;;;;;;6188433;23;20169;-89
2022/05/14 14:17:50;;;;;;;1.00;1.00;;;9.70;99.90;;;;;;6188967;23;20177;-89
2022/05/14 14:20:29;;;;;;;3.40;1.10;;;9.60;99.90;;;;;;6190775;23;20246;-89
2022/05/14 14:23:02;;;;;;;2.40;1.00;;;9.60;99.90;;;;;;6193148;23;20195;-89
2022/05/14 14:25:37;;;;;;;3.20;1.70;;;9.60;99.90;;;;;;6190456;23;20169;-87
2022/05/14 14:28:10;;;;;;;2.87;1.60;;;9.60;99.90;;;;;;6189971;23;20221;-89
2022/05/14 14:30:41;;;;;;;2.87;1.73;;;9.60;99.90;;;;;;6204564;23;20177;-89
2022/05/14 14:33:12;;;;;;;1.83;1.57;;;9.50;99.90;;;;;;6209883;23;20196;-91
2022/05/14 14:35:46;;;;;;;8.10;2.87;;;9.50;99.90;;;;;;6204891;23;20169;-90